createdAt,value
2022-12-03T00:00:12.786Z,1010.53
2022-12-03T00:01:09.691Z,1010.53
2022-12-03T00:02:09.807Z,1010.55
2022-12-03T00:03:09.848Z,1010.53
2022-12-03T00:04:09.745Z,1010.51
2022-12-03T00:05:09.663Z,1010.52
2022-12-03T00:06:09.644Z,1010.52
2022-12-03T00:07:09.629Z,1010.53
2022-12-03T00:08:09.704Z,1010.49
2022-12-03T00:09:09.629Z,1010.51
2022-12-03T00:10:09.606Z,1010.50
2022-12-03T00:11:09.585Z,1010.48
2022-12-03T00:12:09.595Z,1010.49
2022-12-03T00:13:09.560Z,1010.48
2022-12-03T00:14:09.582Z,1010.48
2022-12-03T00:15:09.546Z,1010.48
2022-12-03T00:16:09.649Z,1010.48
2022-12-03T00:17:09.523Z,1010.48
2022-12-03T00:18:09.518Z,1010.48
2022-12-03T00:19:09.518Z,1010.46
2022-12-03T00:20:09.503Z,1010.47
2022-12-03T00:21:09.482Z,1010.43
2022-12-03T00:22:10.912Z,1010.42
2022-12-03T00:23:09.465Z,1010.41
2022-12-03T00:24:09.502Z,1010.42
2022-12-03T00:25:09.459Z,1010.39
2022-12-03T00:26:09.436Z,1010.40
2022-12-03T00:27:09.416Z,1010.39
2022-12-03T00:28:09.443Z,1010.42
2022-12-03T00:29:09.401Z,1010.39
2022-12-03T00:30:09.416Z,1010.38
2022-12-03T00:31:09.409Z,1010.41
2022-12-03T00:32:09.391Z,1010.36
2022-12-03T00:33:09.376Z,1010.39
2022-12-03T00:34:09.359Z,1010.37
2022-12-03T00:35:09.361Z,1010.36
2022-12-03T00:36:09.340Z,1010.38
2022-12-03T00:37:09.317Z,1010.35
2022-12-03T00:38:09.313Z,1010.32
2022-12-03T00:39:09.320Z,1010.36
2022-12-03T00:40:09.318Z,1010.34
2022-12-03T00:41:09.281Z,1010.36
2022-12-03T00:42:09.272Z,1010.39
2022-12-03T00:43:09.269Z,1010.38
2022-12-03T00:44:09.272Z,1010.40
2022-12-03T00:45:09.261Z,1010.38
2022-12-03T00:46:09.290Z,1010.40
2022-12-03T00:47:09.316Z,1010.36
2022-12-03T00:48:09.212Z,1010.36
2022-12-03T00:49:09.200Z,1010.38
2022-12-03T00:50:09.233Z,1010.40
2022-12-03T00:51:09.177Z,1010.40
2022-12-03T00:52:09.165Z,1010.40
2022-12-03T00:53:09.165Z,1010.40
2022-12-03T00:54:09.150Z,1010.40
2022-12-03T00:55:09.159Z,1010.39
2022-12-03T00:56:09.159Z,1010.41
2022-12-03T00:57:09.116Z,1010.36
2022-12-03T00:58:09.106Z,1010.40
2022-12-03T00:59:09.106Z,1010.39
2022-12-03T01:00:09.104Z,1010.35
2022-12-03T01:01:09.070Z,1010.40
2022-12-03T01:02:09.221Z,1010.40
2022-12-03T01:03:09.056Z,1010.40
2022-12-03T01:04:09.128Z,1010.42
2022-12-03T01:05:09.146Z,1010.42
2022-12-03T01:06:09.040Z,1010.43
2022-12-03T01:07:09.013Z,1010.45
2022-12-03T01:08:09.072Z,1010.44
2022-12-03T01:09:08.986Z,1010.46
2022-12-03T01:10:09.023Z,1010.43
2022-12-03T01:11:08.966Z,1010.45
2022-12-03T01:12:08.965Z,1010.46
2022-12-03T01:13:08.974Z,1010.46
2022-12-03T01:14:08.960Z,1010.47
2022-12-03T01:15:08.948Z,1010.47
2022-12-03T01:16:08.985Z,1010.47
2022-12-03T01:17:08.932Z,1010.46
2022-12-03T01:18:08.903Z,1010.47
2022-12-03T01:19:08.890Z,1010.49
2022-12-03T01:20:08.905Z,1010.48
2022-12-03T01:21:08.871Z,1010.51
2022-12-03T01:22:08.855Z,1010.50
2022-12-03T01:23:08.847Z,1010.48
2022-12-03T01:24:08.834Z,1010.45
2022-12-03T01:25:08.868Z,1010.50
2022-12-03T01:26:08.812Z,1010.49
2022-12-03T01:27:08.809Z,1010.49
2022-12-03T01:28:08.799Z,1010.50
2022-12-03T01:29:08.804Z,1010.47
2022-12-03T01:30:08.797Z,1010.48
2022-12-03T01:31:08.840Z,1010.50
2022-12-03T01:32:08.762Z,1010.47
2022-12-03T01:33:08.765Z,1010.46
2022-12-03T01:34:08.737Z,1010.48
2022-12-03T01:35:16.436Z,1010.48
2022-12-03T01:36:08.709Z,1010.44
2022-12-03T01:37:08.713Z,1010.38
2022-12-03T01:38:08.710Z,1010.41
2022-12-03T01:39:08.692Z,1010.43
2022-12-03T01:40:08.715Z,1010.42
2022-12-03T01:41:11.895Z,1010.43
2022-12-03T01:42:08.654Z,1010.43
2022-12-03T01:43:08.645Z,1010.47
2022-12-03T01:44:08.644Z,1010.41
2022-12-03T01:45:08.650Z,1010.44
2022-12-03T01:46:08.668Z,1010.44
2022-12-03T01:47:08.694Z,1010.45
2022-12-03T01:48:08.589Z,1010.44
2022-12-03T01:49:08.616Z,1010.47
2022-12-03T01:50:08.574Z,1010.43
2022-12-03T01:51:08.596Z,1010.40
2022-12-03T01:52:08.543Z,1010.36
2022-12-03T01:53:08.540Z,1010.39
2022-12-03T01:54:08.531Z,1010.40
2022-12-03T01:55:08.519Z,1010.39
2022-12-03T01:56:08.533Z,1010.40
2022-12-03T01:57:08.514Z,1010.39
2022-12-03T01:58:08.483Z,1010.40
2022-12-03T01:59:08.480Z,1010.44
2022-12-03T02:00:08.461Z,1010.41
2022-12-03T02:01:08.490Z,1010.44
2022-12-03T02:02:08.514Z,1010.43
2022-12-03T02:03:08.445Z,1010.42
2022-12-03T02:04:08.498Z,1010.42
2022-12-03T02:05:08.415Z,1010.44
2022-12-03T02:06:08.425Z,1010.43
2022-12-03T02:07:08.398Z,1010.40
2022-12-03T02:08:08.445Z,1010.40
2022-12-03T02:09:08.419Z,1010.41
2022-12-03T02:10:08.358Z,1010.41
2022-12-03T02:11:08.374Z,1010.41
2022-12-03T02:12:08.337Z,1010.42
2022-12-03T02:13:08.345Z,1010.43
2022-12-03T02:14:08.315Z,1010.43
2022-12-03T02:15:08.319Z,1010.41
2022-12-03T02:16:08.382Z,1010.44
2022-12-03T02:17:08.293Z,1010.45
2022-12-03T02:18:08.280Z,1010.43
2022-12-03T02:19:08.281Z,1010.42
2022-12-03T02:20:08.257Z,1010.41
2022-12-03T02:21:08.282Z,1010.41
2022-12-03T02:22:08.260Z,1010.39
2022-12-03T02:23:08.242Z,1010.36
2022-12-03T02:24:08.230Z,1010.40
2022-12-03T02:25:08.215Z,1010.41
2022-12-03T02:26:08.253Z,1010.38
2022-12-03T02:27:08.197Z,1010.40
2022-12-03T02:28:08.179Z,1010.41
2022-12-03T02:29:08.170Z,1010.41
2022-12-03T02:30:08.156Z,1010.41
2022-12-03T02:31:08.220Z,1010.42
2022-12-03T02:32:08.138Z,1010.43
2022-12-03T02:33:08.187Z,1010.41
2022-12-03T02:34:08.114Z,1010.41
2022-12-03T02:35:08.113Z,1010.40
2022-12-03T02:36:08.136Z,1010.41
2022-12-03T02:37:08.109Z,1010.38
2022-12-03T02:38:08.086Z,1010.37
2022-12-03T02:39:08.077Z,1010.35
2022-12-03T02:40:08.071Z,1010.34
2022-12-03T02:41:08.071Z,1010.34
2022-12-03T02:42:08.051Z,1010.32
2022-12-03T02:43:08.036Z,1010.33
2022-12-03T02:44:08.025Z,1010.33
2022-12-03T02:45:08.021Z,1010.33
2022-12-03T02:46:08.015Z,1010.31
2022-12-03T02:47:08.087Z,1010.31
2022-12-03T02:48:07.978Z,1010.31
2022-12-03T02:49:07.965Z,1010.30
2022-12-03T02:50:07.954Z,1010.31
2022-12-03T02:51:07.964Z,1010.32
2022-12-03T02:52:07.932Z,1010.30
2022-12-03T02:53:07.924Z,1010.31
2022-12-03T02:54:07.908Z,1010.32
2022-12-03T02:55:07.911Z,1010.33
2022-12-03T02:56:07.914Z,1010.31
2022-12-03T02:57:07.893Z,1010.33
2022-12-03T02:58:07.868Z,1010.32
2022-12-03T02:59:07.858Z,1010.31
2022-12-03T03:00:07.849Z,1010.32
2022-12-03T03:01:07.921Z,1010.30
2022-12-03T03:02:07.886Z,1010.30
2022-12-03T03:03:07.828Z,1010.29
2022-12-03T03:04:07.805Z,1010.27
2022-12-03T03:05:07.815Z,1010.25
2022-12-03T03:06:07.816Z,1010.26
2022-12-03T03:07:07.818Z,1010.23
2022-12-03T03:08:07.870Z,1010.23
2022-12-03T03:09:07.766Z,1010.23
2022-12-03T03:10:07.746Z,1010.26
2022-12-03T03:11:07.743Z,1010.26
2022-12-03T03:12:07.771Z,1010.23
2022-12-03T03:13:07.721Z,1010.19
2022-12-03T03:14:07.710Z,1010.21
2022-12-03T03:15:07.728Z,1010.20
2022-12-03T03:16:07.708Z,1010.21
2022-12-03T03:17:07.705Z,1010.22
2022-12-03T03:18:07.681Z,1010.21
2022-12-03T03:19:07.653Z,1010.21
2022-12-03T03:20:07.646Z,1010.21
2022-12-03T03:21:07.657Z,1010.21
2022-12-03T03:22:07.647Z,1010.21
2022-12-03T03:23:07.620Z,1010.19
2022-12-03T03:24:07.637Z,1010.18
2022-12-03T03:25:07.593Z,1010.16
2022-12-03T03:26:07.593Z,1010.19
2022-12-03T03:27:07.597Z,1010.16
2022-12-03T03:28:07.574Z,1010.16
2022-12-03T03:29:07.547Z,1010.16
2022-12-03T03:30:07.543Z,1010.16
2022-12-03T03:31:07.527Z,1010.15
2022-12-03T03:32:07.592Z,1010.14
2022-12-03T03:33:07.509Z,1010.14
2022-12-03T03:34:07.515Z,1010.12
2022-12-03T03:35:07.493Z,1010.12
2022-12-03T03:36:07.480Z,1010.16
2022-12-03T03:37:07.495Z,1010.13
2022-12-03T03:38:07.465Z,1010.12
2022-12-03T03:39:07.447Z,1010.14
2022-12-03T03:40:07.450Z,1010.13
2022-12-03T03:41:07.444Z,1010.12
2022-12-03T03:42:07.449Z,1010.09
2022-12-03T03:43:07.411Z,1010.08
2022-12-03T03:44:07.427Z,1010.05
2022-12-03T03:45:07.400Z,1010.06
2022-12-03T03:46:07.489Z,1010.03
2022-12-03T03:47:07.424Z,1009.99
2022-12-03T03:48:07.365Z,1010.00
2022-12-03T03:49:07.344Z,1009.99
2022-12-03T03:50:07.348Z,1009.98
2022-12-03T03:51:07.326Z,1009.97
2022-12-03T03:52:14.932Z,1009.97
2022-12-03T03:53:13.785Z,1009.96
2022-12-03T03:54:13.791Z,1009.97
2022-12-03T03:55:07.282Z,1009.96
2022-12-03T03:56:07.280Z,1009.93
2022-12-03T03:57:07.288Z,1009.92
2022-12-03T03:58:07.257Z,1009.93
2022-12-03T03:59:07.249Z,1009.94
2022-12-03T04:00:07.241Z,1009.91
2022-12-03T04:01:07.279Z,1009.89
2022-12-03T04:02:07.250Z,1009.90
2022-12-03T04:03:07.202Z,1009.90
2022-12-03T04:04:07.222Z,1009.91
2022-12-03T04:05:07.198Z,1009.93
2022-12-03T04:06:07.173Z,1009.94
2022-12-03T04:07:07.191Z,1009.93
2022-12-03T04:08:07.216Z,1009.92
2022-12-03T04:09:07.150Z,1009.90
2022-12-03T04:10:07.138Z,1009.90
2022-12-03T04:11:07.133Z,1009.89
2022-12-03T04:12:07.135Z,1009.88
2022-12-03T04:13:07.113Z,1009.87
2022-12-03T04:14:07.097Z,1009.84
2022-12-03T04:15:07.079Z,1009.87
2022-12-03T04:16:07.108Z,1009.87
2022-12-03T04:17:07.097Z,1009.82
2022-12-03T04:18:07.058Z,1009.83
2022-12-03T04:19:07.043Z,1009.83
2022-12-03T04:20:07.035Z,1009.82
2022-12-03T04:21:07.017Z,1009.81
2022-12-03T04:22:07.060Z,1009.81
2022-12-03T04:23:07.001Z,1009.80
2022-12-03T04:24:06.996Z,1009.81
2022-12-03T04:25:06.980Z,1009.83
2022-12-03T04:26:06.990Z,1009.83
2022-12-03T04:27:06.990Z,1009.80
2022-12-03T04:28:06.953Z,1009.85
2022-12-03T04:29:06.955Z,1009.85
2022-12-03T04:30:06.939Z,1009.83
2022-12-03T04:31:06.951Z,1009.83
2022-12-03T04:32:06.950Z,1009.83
2022-12-03T04:33:06.952Z,1009.85
2022-12-03T04:34:06.900Z,1009.86
2022-12-03T04:35:06.921Z,1009.86
2022-12-03T04:36:06.878Z,1009.84
2022-12-03T04:37:06.858Z,1009.86
2022-12-03T04:38:06.875Z,1009.82
2022-12-03T04:39:06.842Z,1009.82
2022-12-03T04:40:06.849Z,1009.82
2022-12-03T04:41:06.816Z,1009.82
2022-12-03T04:42:06.808Z,1009.81
2022-12-03T04:43:06.817Z,1009.80
2022-12-03T04:44:06.795Z,1009.79
2022-12-03T04:45:06.776Z,1009.80
2022-12-03T04:46:06.785Z,1009.82
2022-12-03T04:47:06.752Z,1009.80
2022-12-03T04:48:06.787Z,1009.81
2022-12-03T04:49:06.742Z,1009.79
2022-12-03T04:50:06.729Z,1009.83
2022-12-03T04:51:06.729Z,1009.83
2022-12-03T04:52:06.706Z,1009.83
2022-12-03T04:53:06.712Z,1009.85
2022-12-03T04:54:06.785Z,1009.87
2022-12-03T04:55:06.670Z,1009.83
2022-12-03T04:56:06.667Z,1009.83
2022-12-03T04:57:06.663Z,1009.83
2022-12-03T04:58:06.667Z,1009.85
2022-12-03T04:59:10.179Z,1009.87
2022-12-03T05:00:06.629Z,1009.84
2022-12-03T05:01:06.663Z,1009.86
2022-12-03T05:02:06.726Z,1009.85
2022-12-03T05:03:06.703Z,1009.88
2022-12-03T05:04:06.588Z,1009.87
2022-12-03T05:05:06.571Z,1009.89
2022-12-03T05:06:06.561Z,1009.88
2022-12-03T05:07:06.553Z,1009.90
2022-12-03T05:08:06.647Z,1009.91
2022-12-03T05:09:06.558Z,1009.91
2022-12-03T05:10:06.526Z,1009.93
2022-12-03T05:11:06.509Z,1009.92
2022-12-03T05:12:06.503Z,1009.92
2022-12-03T05:13:06.536Z,1009.91
2022-12-03T05:14:06.486Z,1009.91
2022-12-03T05:15:06.467Z,1009.92
2022-12-03T05:16:06.465Z,1009.91
2022-12-03T05:17:06.583Z,1009.88
2022-12-03T05:18:06.468Z,1009.90
2022-12-03T05:19:06.427Z,1009.89
2022-12-03T05:20:06.439Z,1009.87
2022-12-03T05:21:06.410Z,1009.84
2022-12-03T05:22:06.405Z,1009.85
2022-12-03T05:23:06.407Z,1009.83
2022-12-03T05:24:06.384Z,1009.85
2022-12-03T05:25:06.381Z,1009.82
2022-12-03T05:26:06.358Z,1009.80
2022-12-03T05:27:06.340Z,1009.81
2022-12-03T05:28:06.365Z,1009.81
2022-12-03T05:29:06.322Z,1009.79
2022-12-03T05:30:06.322Z,1009.79
2022-12-03T05:31:06.506Z,1009.80
2022-12-03T05:32:06.298Z,1009.76
2022-12-03T05:33:06.428Z,1009.78
2022-12-03T05:34:06.275Z,1009.79
2022-12-03T05:35:06.265Z,1009.75
2022-12-03T05:36:06.264Z,1009.75
2022-12-03T05:37:06.246Z,1009.75
2022-12-03T05:38:06.227Z,1009.74
2022-12-03T05:39:06.249Z,1009.73
2022-12-03T05:40:06.243Z,1009.70
2022-12-03T05:41:06.201Z,1009.72
2022-12-03T05:42:06.190Z,1009.71
2022-12-03T05:43:06.184Z,1009.70
2022-12-03T05:44:06.199Z,1009.69
2022-12-03T05:45:06.161Z,1009.68
2022-12-03T05:46:06.204Z,1009.69
2022-12-03T05:47:06.143Z,1009.69
2022-12-03T05:48:06.140Z,1009.68
2022-12-03T05:49:06.146Z,1009.69
2022-12-03T05:50:06.115Z,1009.68
2022-12-03T05:51:06.108Z,1009.67
2022-12-03T05:52:06.086Z,1009.67
2022-12-03T05:53:06.083Z,1009.65
2022-12-03T05:54:06.113Z,1009.66
2022-12-03T05:55:06.063Z,1009.66
2022-12-03T05:56:06.049Z,1009.66
2022-12-03T05:57:06.050Z,1009.66
2022-12-03T05:58:06.028Z,1009.68
2022-12-03T05:59:06.056Z,1009.65
2022-12-03T06:00:06.012Z,1009.66
2022-12-03T06:01:06.015Z,1009.65
2022-12-03T06:02:06.026Z,1009.67
2022-12-03T06:03:06.192Z,1009.66
2022-12-03T06:04:06.067Z,1009.68
2022-12-03T06:05:05.971Z,1009.67
2022-12-03T06:06:05.950Z,1009.67
2022-12-03T06:07:09.688Z,1009.68
2022-12-03T06:08:06.020Z,1009.66
2022-12-03T06:09:05.947Z,1009.64
2022-12-03T06:10:05.902Z,1009.67
2022-12-03T06:11:05.901Z,1009.63
2022-12-03T06:12:05.883Z,1009.63
2022-12-03T06:13:05.875Z,1009.65
2022-12-03T06:14:05.885Z,1009.62
2022-12-03T06:15:05.864Z,1009.62
2022-12-03T06:16:05.901Z,1009.64
2022-12-03T06:17:05.835Z,1009.63
2022-12-03T06:18:05.825Z,1009.61
2022-12-03T06:19:05.844Z,1009.63
2022-12-03T06:20:05.801Z,1009.61
2022-12-03T06:21:05.795Z,1009.58
2022-12-03T06:22:05.792Z,1009.59
2022-12-03T06:23:05.776Z,1009.60
2022-12-03T06:24:05.780Z,1009.57
2022-12-03T06:25:07.162Z,1009.61
2022-12-03T06:26:05.737Z,1009.61
2022-12-03T06:27:05.745Z,1009.56
2022-12-03T06:28:05.717Z,1009.56
2022-12-03T06:29:05.735Z,1009.57
2022-12-03T06:30:05.701Z,1009.56
2022-12-03T06:31:05.720Z,1009.56
2022-12-03T06:32:05.680Z,1009.53
2022-12-03T06:33:05.671Z,1009.54
2022-12-03T06:34:05.634Z,1009.55
2022-12-03T06:35:05.664Z,1009.62
2022-12-03T06:36:05.655Z,1009.57
2022-12-03T06:37:05.634Z,1009.58
2022-12-03T06:38:05.626Z,1009.56
2022-12-03T06:39:05.630Z,1009.56
2022-12-03T06:40:05.628Z,1009.60
2022-12-03T06:41:05.597Z,1009.55
2022-12-03T06:42:05.581Z,1009.59
2022-12-03T06:43:05.569Z,1009.59
2022-12-03T06:44:05.576Z,1009.63
2022-12-03T06:45:05.546Z,1009.59
2022-12-03T06:46:05.552Z,1009.61
2022-12-03T06:47:05.527Z,1009.61
2022-12-03T06:48:05.512Z,1009.62
2022-12-03T06:49:05.544Z,1009.59
2022-12-03T06:50:05.493Z,1009.61
2022-12-03T06:51:05.494Z,1009.60
2022-12-03T06:52:05.479Z,1009.58
2022-12-03T06:53:05.471Z,1009.57
2022-12-03T06:54:05.472Z,1009.54
2022-12-03T06:55:05.397Z,1009.55
2022-12-03T06:56:05.448Z,1009.52
2022-12-03T06:57:05.388Z,1009.57
2022-12-03T06:58:05.357Z,1009.54
2022-12-03T06:59:05.357Z,1009.57
2022-12-03T07:00:05.378Z,1009.57
2022-12-03T07:01:05.381Z,1009.57
2022-12-03T07:02:05.456Z,1009.51
2022-12-03T07:03:05.396Z,1009.53
2022-12-03T07:04:05.297Z,1009.54
2022-12-03T07:05:05.340Z,1009.49
2022-12-03T07:06:05.327Z,1009.51
2022-12-03T07:07:05.345Z,1009.49
2022-12-03T07:08:05.347Z,1009.50
2022-12-03T07:09:05.255Z,1009.47
2022-12-03T07:10:05.253Z,1009.52
2022-12-03T07:11:05.283Z,1009.51
2022-12-03T07:12:05.211Z,1009.48
2022-12-03T07:13:05.204Z,1009.49
2022-12-03T07:14:05.933Z,1009.54
2022-12-03T07:15:05.290Z,1009.51
2022-12-03T07:16:05.209Z,1009.51
2022-12-03T07:17:05.164Z,1009.51
2022-12-03T07:18:05.164Z,1009.51
2022-12-03T07:19:05.146Z,1009.52
2022-12-03T07:20:05.149Z,1009.55
2022-12-03T07:21:05.126Z,1009.53
2022-12-03T07:22:05.111Z,1009.52
2022-12-03T07:23:05.105Z,1009.53
2022-12-03T07:24:05.096Z,1009.55
2022-12-03T07:25:05.122Z,1009.52
2022-12-03T07:26:05.063Z,1009.56
2022-12-03T07:27:05.062Z,1009.58
2022-12-03T07:28:05.045Z,1009.58
2022-12-03T07:29:05.077Z,1009.56
2022-12-03T07:30:05.050Z,1009.57
2022-12-03T07:31:05.119Z,1009.58
2022-12-03T07:32:05.007Z,1009.58
2022-12-03T07:33:04.999Z,1009.56
2022-12-03T07:34:04.997Z,1009.58
2022-12-03T07:35:05.005Z,1009.58
2022-12-03T07:36:04.965Z,1009.60
2022-12-03T07:37:04.961Z,1009.61
2022-12-03T07:38:04.947Z,1009.62
2022-12-03T07:39:04.945Z,1009.65
2022-12-03T07:40:04.947Z,1009.62
2022-12-03T07:41:04.918Z,1009.63
2022-12-03T07:42:04.918Z,1009.60
2022-12-03T07:43:04.905Z,1009.60
2022-12-03T07:44:09.318Z,1009.63
2022-12-03T07:45:04.918Z,1009.61
2022-12-03T07:46:04.860Z,1009.61
2022-12-03T07:47:04.935Z,1009.59
2022-12-03T07:48:04.846Z,1009.64
2022-12-03T07:49:04.835Z,1009.58
2022-12-03T07:50:04.842Z,1009.60
2022-12-03T07:51:04.817Z,1009.60
2022-12-03T07:52:04.806Z,1009.64
2022-12-03T07:53:04.791Z,1009.58
2022-12-03T07:54:04.774Z,1009.62
2022-12-03T07:55:04.820Z,1009.60
2022-12-03T07:56:04.759Z,1009.64
2022-12-03T07:57:04.771Z,1009.62
2022-12-03T07:58:04.742Z,1009.65
2022-12-03T07:59:04.750Z,1009.62
2022-12-03T08:00:04.744Z,1009.60
2022-12-03T08:01:04.820Z,1009.62
2022-12-03T08:02:04.787Z,1009.63
2022-12-03T08:03:04.690Z,1009.61
2022-12-03T08:04:04.670Z,1009.64
2022-12-03T08:05:04.711Z,1009.61
2022-12-03T08:06:04.682Z,1009.62
2022-12-03T08:07:04.684Z,1009.62
2022-12-03T08:08:04.710Z,1009.63
2022-12-03T08:09:04.639Z,1009.59
2022-12-03T08:10:04.635Z,1009.57
2022-12-03T08:11:04.613Z,1009.60
2022-12-03T08:12:04.630Z,1009.60
2022-12-03T08:13:04.605Z,1009.60
2022-12-03T08:14:04.574Z,1009.61
2022-12-03T08:15:04.621Z,1009.63
2022-12-03T08:16:04.602Z,1009.62
2022-12-03T08:17:04.549Z,1009.65
2022-12-03T08:18:04.533Z,1009.64
2022-12-03T08:19:04.528Z,1009.66
2022-12-03T08:20:04.535Z,1009.65
2022-12-03T08:21:04.504Z,1009.61
2022-12-03T08:22:04.509Z,1009.62
2022-12-03T08:23:04.487Z,1009.62
2022-12-03T08:24:04.469Z,1009.63
2022-12-03T08:25:04.462Z,1009.61
2022-12-03T08:26:04.482Z,1009.61
2022-12-03T08:27:04.443Z,1009.61
2022-12-03T08:28:04.428Z,1009.64
2022-12-03T08:29:04.418Z,1009.62
2022-12-03T08:30:04.413Z,1009.60
2022-12-03T08:31:04.419Z,1009.63
2022-12-03T08:32:04.409Z,1009.63
2022-12-03T08:33:04.394Z,1009.63
2022-12-03T08:34:04.370Z,1009.64
2022-12-03T08:35:04.355Z,1009.64
2022-12-03T08:36:04.363Z,1009.62
2022-12-03T08:37:04.340Z,1009.61
2022-12-03T08:38:04.325Z,1009.63
2022-12-03T08:39:04.316Z,1009.64
2022-12-03T08:40:04.310Z,1009.67
2022-12-03T08:41:04.320Z,1009.68
2022-12-03T08:42:06.916Z,1009.67
2022-12-03T08:43:04.373Z,1009.68
2022-12-03T08:44:04.262Z,1009.70
2022-12-03T08:45:04.257Z,1009.70
2022-12-03T08:46:04.329Z,1009.69
2022-12-03T08:47:04.237Z,1009.69
2022-12-03T08:48:04.232Z,1009.70
2022-12-03T08:49:04.220Z,1009.69
2022-12-03T08:50:04.249Z,1009.67
2022-12-03T08:51:04.219Z,1009.67
2022-12-03T08:52:04.192Z,1009.67
2022-12-03T08:53:04.175Z,1009.65
2022-12-03T08:54:04.175Z,1009.66
2022-12-03T08:55:04.151Z,1009.67
2022-12-03T08:56:04.168Z,1009.67
2022-12-03T08:57:04.137Z,1009.68
2022-12-03T08:58:04.128Z,1009.67
2022-12-03T08:59:04.111Z,1009.66
2022-12-03T09:00:04.095Z,1009.67
2022-12-03T09:01:04.149Z,1009.62
2022-12-03T09:02:04.077Z,1009.67
2022-12-03T09:03:04.068Z,1009.66
2022-12-03T09:04:04.120Z,1009.65
2022-12-03T09:05:04.065Z,1009.65
2022-12-03T09:06:04.060Z,1009.65
2022-12-03T09:07:04.028Z,1009.66
2022-12-03T09:08:04.156Z,1009.68
2022-12-03T09:09:06.880Z,1009.67
2022-12-03T09:10:03.993Z,1009.65
2022-12-03T09:11:04.050Z,1009.66
2022-12-03T09:12:03.975Z,1009.67
2022-12-03T09:13:03.965Z,1009.65
2022-12-03T09:14:03.955Z,1009.68
2022-12-03T09:15:03.974Z,1009.67
2022-12-03T09:16:04.087Z,1009.65
2022-12-03T09:17:04.081Z,1009.61
2022-12-03T09:18:03.909Z,1009.60
2022-12-03T09:19:03.937Z,1009.59
2022-12-03T09:20:03.893Z,1009.59
2022-12-03T09:21:03.892Z,1009.58
2022-12-03T09:22:03.900Z,1009.60
2022-12-03T09:23:03.864Z,1009.59
2022-12-03T09:24:03.876Z,1009.60
2022-12-03T09:25:03.847Z,1009.60
2022-12-03T09:26:03.827Z,1009.58
2022-12-03T09:27:03.847Z,1009.60
2022-12-03T09:28:03.825Z,1009.59
2022-12-03T09:29:08.888Z,1009.60
2022-12-03T09:30:03.794Z,1009.61
2022-12-03T09:31:03.792Z,1009.61
2022-12-03T09:32:03.897Z,1009.58
2022-12-03T09:33:03.772Z,1009.57
2022-12-03T09:34:03.797Z,1009.60
2022-12-03T09:35:03.752Z,1009.58
2022-12-03T09:36:03.742Z,1009.56
2022-12-03T09:37:03.760Z,1009.58
2022-12-03T09:38:03.721Z,1009.57
2022-12-03T09:39:03.702Z,1009.56
2022-12-03T09:40:03.719Z,1009.59
2022-12-03T09:41:03.730Z,1009.59
2022-12-03T09:42:03.707Z,1009.56
2022-12-03T09:43:03.668Z,1009.60
2022-12-03T09:44:05.121Z,1009.58
2022-12-03T09:45:03.674Z,1009.58
2022-12-03T09:46:03.693Z,1009.56
2022-12-03T09:47:03.654Z,1009.59
2022-12-03T09:48:03.605Z,1009.57
2022-12-03T09:49:03.601Z,1009.54
2022-12-03T09:50:03.595Z,1009.55
2022-12-03T09:51:03.578Z,1009.59
2022-12-03T09:52:03.642Z,1009.56
2022-12-03T09:53:03.561Z,1009.56
2022-12-03T09:54:03.567Z,1009.56
2022-12-03T09:55:03.555Z,1009.55
2022-12-03T09:56:03.538Z,1009.57
2022-12-03T09:57:03.546Z,1009.57
2022-12-03T09:58:03.507Z,1009.59
2022-12-03T09:59:03.500Z,1009.55
2022-12-03T10:00:03.510Z,1009.57
2022-12-03T10:01:03.518Z,1009.52
2022-12-03T10:02:03.630Z,1009.49
2022-12-03T10:03:03.454Z,1009.48
2022-12-03T10:04:03.496Z,1009.45
2022-12-03T10:05:03.565Z,1009.45
2022-12-03T10:06:03.438Z,1009.42
2022-12-03T10:07:03.445Z,1009.40
2022-12-03T10:08:03.461Z,1009.40
2022-12-03T10:09:09.937Z,1009.39
2022-12-03T10:10:03.386Z,1009.40
2022-12-03T10:11:03.361Z,1009.38
2022-12-03T10:12:10.956Z,1009.38
2022-12-03T10:13:03.341Z,1009.39
2022-12-03T10:14:10.848Z,1009.38
2022-12-03T10:15:03.319Z,1009.36
2022-12-03T10:16:03.326Z,1009.34
2022-12-03T10:17:03.365Z,1009.34
2022-12-03T10:18:03.322Z,1009.32
2022-12-03T10:19:03.284Z,1009.28
2022-12-03T10:20:03.339Z,1009.29
2022-12-03T10:21:03.292Z,1009.29
2022-12-03T10:22:03.278Z,1009.26
2022-12-03T10:23:03.281Z,1009.27
2022-12-03T10:24:03.256Z,1009.26
2022-12-03T10:25:03.219Z,1009.26
2022-12-03T10:26:03.261Z,1009.26
2022-12-03T10:27:03.259Z,1009.24
2022-12-03T10:28:03.199Z,1009.25
2022-12-03T10:29:03.202Z,1009.22
2022-12-03T10:30:03.178Z,1009.20
2022-12-03T10:31:03.192Z,1009.19
2022-12-03T10:32:03.179Z,1009.18
2022-12-03T10:33:03.151Z,1009.16
2022-12-03T10:34:03.143Z,1009.16
2022-12-03T10:35:03.146Z,1009.18
2022-12-03T10:36:03.127Z,1009.14
2022-12-03T10:37:03.246Z,1009.14
2022-12-03T10:38:03.094Z,1009.11
2022-12-03T10:39:03.074Z,1009.09
2022-12-03T10:40:03.073Z,1009.08
2022-12-03T10:41:03.053Z,1009.07
2022-12-03T10:42:03.063Z,1009.09
2022-12-03T10:43:03.096Z,1009.11
2022-12-03T10:44:03.039Z,1009.09
2022-12-03T10:45:03.022Z,1009.06
2022-12-03T10:46:12.300Z,1009.07
2022-12-03T10:47:03.165Z,1009.05
2022-12-03T10:48:03.007Z,1009.06
2022-12-03T10:49:03.027Z,1009.05
2022-12-03T10:50:03.091Z,1009.08
2022-12-03T10:51:03.087Z,1009.06
2022-12-03T10:52:02.969Z,1009.05
2022-12-03T10:53:02.973Z,1009.04
2022-12-03T10:54:02.929Z,1009.02
2022-12-03T10:55:02.947Z,1009.00
2022-12-03T10:56:02.985Z,1009.00
2022-12-03T10:57:02.896Z,1009.00
2022-12-03T10:58:02.930Z,1008.97
2022-12-03T10:59:02.880Z,1008.97
2022-12-03T11:00:02.926Z,1008.95
2022-12-03T11:01:02.941Z,1008.94
2022-12-03T11:02:02.932Z,1008.91
2022-12-03T11:03:02.935Z,1008.90
2022-12-03T11:04:02.957Z,1008.86
2022-12-03T11:05:02.806Z,1008.83
2022-12-03T11:06:02.832Z,1008.82
2022-12-03T11:07:02.795Z,1008.84
2022-12-03T11:08:02.884Z,1008.87
2022-12-03T11:09:08.535Z,1008.83
2022-12-03T11:10:02.767Z,1008.84
2022-12-03T11:11:02.766Z,1008.84
2022-12-03T11:12:02.758Z,1008.85
2022-12-03T11:13:02.756Z,1008.81
2022-12-03T11:14:02.733Z,1008.84
2022-12-03T11:15:02.831Z,1008.83
2022-12-03T11:16:02.783Z,1008.80
2022-12-03T11:17:02.696Z,1008.80
2022-12-03T11:18:02.728Z,1008.76
2022-12-03T11:19:02.785Z,1008.73
2022-12-03T11:20:02.672Z,1008.70
2022-12-03T11:21:02.647Z,1008.71
2022-12-03T11:22:02.650Z,1008.68
2022-12-03T11:23:02.644Z,1008.68
2022-12-03T11:24:02.625Z,1008.69
2022-12-03T11:25:02.615Z,1008.67
2022-12-03T11:26:02.639Z,1008.65
2022-12-03T11:27:02.583Z,1008.66
2022-12-03T11:28:02.679Z,1008.66
2022-12-03T11:29:02.707Z,1008.66
2022-12-03T11:30:02.604Z,1008.62
2022-12-03T11:31:02.700Z,1008.60
2022-12-03T11:32:03.166Z,1008.59
2022-12-03T11:33:02.563Z,1008.62
2022-12-03T11:34:02.513Z,1008.59
2022-12-03T11:35:02.521Z,1008.57
2022-12-03T11:36:02.495Z,1008.54
2022-12-03T11:37:02.486Z,1008.55
2022-12-03T11:38:02.477Z,1008.55
2022-12-03T11:39:02.512Z,1008.55
2022-12-03T11:40:02.463Z,1008.52
2022-12-03T11:41:02.460Z,1008.50
2022-12-03T11:42:02.474Z,1008.49
2022-12-03T11:43:02.509Z,1008.45
2022-12-03T11:44:02.432Z,1008.43
2022-12-03T11:45:02.407Z,1008.43
2022-12-03T11:46:04.457Z,1008.42
2022-12-03T11:47:02.486Z,1008.43
2022-12-03T11:48:02.388Z,1008.41
2022-12-03T11:49:02.379Z,1008.43
2022-12-03T11:50:02.377Z,1008.43
2022-12-03T11:51:02.346Z,1008.44
2022-12-03T11:52:02.343Z,1008.43
2022-12-03T11:53:02.315Z,1008.44
2022-12-03T11:54:02.347Z,1008.46
2022-12-03T11:55:02.292Z,1008.45
2022-12-03T11:56:04.622Z,1008.47
2022-12-03T11:57:02.269Z,1008.46
2022-12-03T11:58:02.265Z,1008.46
2022-12-03T11:59:02.300Z,1008.44
2022-12-03T12:00:02.265Z,1008.44
2022-12-03T12:01:02.255Z,1008.43
2022-12-03T12:02:02.253Z,1008.43
2022-12-03T12:03:02.267Z,1008.41
2022-12-03T12:04:02.288Z,1008.40
2022-12-03T12:05:02.208Z,1008.38